| time (UTC) | temp C | wind direction | speed KPH | gust KPH | rain 1hr cm | rain 24hr cm | rain mn cm | humidity % | barometer mb |
| 20260502151552 | 18 | 185 | 4.8 | 11.3 | 0.00 | 0.00 | 0.00 | 26 | 1014.3 |
| 20260502123004 | 1 | 177 | 3.2 | 6.4 | 0.00 | 0.00 | 0.00 | 65 | 1015.2 |
| 20260502121503 | 2 | 170 | 1.6 | 11.3 | 0.00 | 0.00 | 0.00 | 63 | 1015.2 |
| 20260502114501 | 2 | 187 | 6.4 | 11.3 | 0.00 | 0.00 | 0.00 | 60 | 1015.2 |
| 20260502113100 | 2 | 183 | 1.6 | 8.0 | 0.00 | 0.00 | 0.00 | 60 | 1015.2 |
| 20260502111559 | 3 | 179 | 4.8 | 12.9 | 0.00 | 0.00 | 0.00 | 58 | 1015.3 |
| 20260502110057 | 3 | 175 | 8.0 | 12.9 | 0.00 | 0.00 | 0.00 | 59 | 1015.5 |
| 20260502104556 | 3 | 179 | 8.0 | 17.7 | 0.00 | 0.00 | 0.00 | 61 | 1015.5 |
| 20260502103054 | 2 | 165 | 12.9 | 19.3 | 0.00 | 0.00 | 0.00 | 64 | 1015.7 |
| 20260502101559 | 2 | 185 | 8.0 | 14.5 | 0.00 | 0.00 | 0.00 | 64 | 1015.9 |
| 20260502071529 | 2 | 183 | 0.0 | 4.8 | 0.00 | 0.00 | 0.00 | 68 | 1017.4 |
| 20260502070022 | 3 | 183 | 0.0 | 3.2 | 0.00 | 0.00 | 0.00 | 65 | 1017.4 |
| 20260502064520 | 3 | 183 | 3.2 | 9.7 | 0.00 | 0.00 | 0.00 | 65 | 1017.5 |
| 20260502063019 | 3 | 183 | 3.2 | 6.4 | 0.00 | 0.00 | 0.00 | 64 | 1017.5 |
| 20260502061515 | 3 | 183 | 0.0 | 4.8 | 0.00 | 0.00 | 0.00 | 63 | 1017.5 |
| 20260502060012 | 3 | 183 | 1.6 | 8.0 | 0.00 | 0.00 | 0.00 | 63 | 1017.6 |
| 20260502054521 | 4 | 183 | 1.6 | 14.5 | 0.00 | 0.00 | 0.00 | 61 | 1017.6 |
| 20260502053011 | 4 | 187 | 6.4 | 11.3 | 0.00 | 0.00 | 0.00 | 61 | 1017.6 |
| 20260502051518 | 5 | 189 | 1.6 | 4.8 | 0.00 | 0.00 | 0.00 | 58 | 1017.6 |
| 20260502050028 | 6 | 188 | 1.6 | 8.0 | 0.00 | 0.00 | 0.00 | 56 | 1017.7 |
| 20260502044511 | 7 | 177 | 6.4 | 11.3 | 0.00 | 0.00 | 0.00 | 53 | 1017.9 |
| 20260502043010 | 7 | 175 | 6.4 | 12.9 | 0.00 | 0.00 | 0.00 | 52 | 1017.9 |
| 20260502041513 | 7 | 172 | 9.7 | 14.5 | 0.00 | 0.00 | 0.00 | 52 | 1018.0 |
| 20260502040012 | 7 | 179 | 4.8 | 9.7 | 0.00 | 0.00 | 0.00 | 52 | 1018.0 |
| 20260502034512 | 7 | 179 | 4.8 | 14.5 | 0.00 | 0.00 | 0.00 | 50 | 1017.9 |
| 20260502033016 | 7 | 179 | 4.8 | 12.9 | 0.00 | 0.00 | 0.00 | 47 | 1017.8 |
| 20260502031507 | 8 | 249 | 0.0 | 6.4 | 0.00 | 0.00 | 0.00 | 44 | 1017.6 |
| 20260502030020 | 10 | 359 | 0.0 | 4.8 | 0.00 | 0.00 | 0.00 | 41 | 1017.5 |
| 20260502024507 | 11 | 303 | 0.0 | 0.0 | 0.00 | 0.00 | 0.00 | 38 | 1017.3 |
| 20260502023005 | 12 | 359 | 0.0 | 0.0 | 0.00 | 0.00 | 0.00 | 36 | 1017.1 |
| 20260502021505 | 13 | 303 | 1.6 | 3.2 | 0.00 | 0.00 | 0.00 | 34 | 1017.0 |
| 20260502020005 | 13 | 359 | 0.0 | 3.2 | 0.00 | 0.00 | 0.00 | 34 | 1016.9 |
| 20260502014504 | 15 | 303 | 3.2 | 11.3 | 0.00 | 0.00 | 0.00 | 33 | 1016.8 |
| 20260502013004 | 15 | 293 | 4.8 | 11.3 | 0.00 | 0.00 | 0.00 | 32 | 1016.8 |
| 20260502011509 | 16 | 291 | 9.7 | 14.5 | 0.00 | 0.00 | 0.00 | 29 | 1016.7 |
| 20260502010006 | 16 | 301 | 6.4 | 14.5 | 0.00 | 0.00 | 0.00 | 31 | 1016.6 |
| 20260502004509 | 17 | 291 | 11.3 | 20.9 | 0.00 | 0.00 | 0.00 | 28 | 1016.6 |
| 20260502003001 | 17 | 359 | 12.9 | 24.1 | 0.00 | 0.00 | 0.00 | 26 | 1016.5 |
| 20260502001501 | 17 | 302 | 16.1 | 22.5 | 0.00 | 0.00 | 0.00 | 27 | 1016.7 |
| 20260502000113 | 17 | 288 | 12.9 | 25.7 | 0.00 | 0.00 | 0.00 | 27 | 1016.6 |
| 20260501234600 | 17 | 297 | 17.7 | 27.4 | 0.00 | 0.00 | 0.00 | 28 | 1016.6 |
| 20260501233058 | 17 | 359 | 19.3 | 30.6 | 0.00 | 0.00 | 0.00 | 27 | 1016.7 |
| 20260501231558 | 17 | 264 | 11.3 | 25.7 | 0.00 | 0.00 | 0.00 | 26 | 1016.8 |
| 20260501230100 | 17 | 272 | 17.7 | 30.6 | 0.00 | 0.00 | 0.00 | 28 | 1016.8 |
| 20260501224557 | 17 | 288 | 16.1 | 37.0 | 0.00 | 0.00 | 0.00 | 27 | 1016.7 |
| 20260501223105 | 17 | 294 | 14.5 | 29.0 | 0.00 | 0.00 | 0.00 | 29 | 1016.8 |
| 20260501221559 | 17 | 275 | 14.5 | 25.7 | 0.00 | 0.00 | 0.00 | 28 | 1016.8 |
| 20260501214554 | 17 | 359 | 14.5 | 30.6 | 0.00 | 0.00 | 0.00 | 27 | 1016.9 |
| 20260501213055 | 17 | 261 | 20.9 | 33.8 | 0.00 | 0.00 | 0.00 | 28 | 1017.0 |
| 20260501211601 | 17 | 276 | 22.5 | 38.6 | 0.00 | 0.00 | 0.00 | 27 | 1017.1 |
| 20260501210055 | 17 | 287 | 22.5 | 37.0 | 0.00 | 0.00 | 0.00 | 29 | 1017.2 |
| 20260501204549 | 17 | 278 | 20.9 | 32.2 | 0.00 | 0.00 | 0.00 | 26 | 1017.3 |
| 20260501203048 | 17 | 276 | 19.3 | 33.8 | 0.00 | 0.00 | 0.00 | 29 | 1017.3 |
| 20260501201546 | 17 | 21 | 16.1 | 32.2 | 0.00 | 0.00 | 0.00 | 30 | 1017.4 |
| 20260501200045 | 17 | 297 | 24.1 | 37.0 | 0.00 | 0.00 | 0.00 | 30 | 1017.4 |
| 20260501194544 | 17 | 294 | 25.7 | 43.5 | 0.00 | 0.00 | 0.00 | 30 | 1017.5 |
| 20260501193044 | 17 | 272 | 17.7 | 35.4 | 0.00 | 0.00 | 0.00 | 31 | 1017.6 |
| 20260501191542 | 17 | 275 | 25.7 | 37.0 | 0.00 | 0.00 | 0.00 | 30 | 1017.7 |
| 20260501190052 | 16 | 279 | 19.3 | 35.4 | 0.00 | 0.00 | 0.00 | 30 | 1017.7 |
| 20260501184542 | 16 | 307 | 20.9 | 33.8 | 0.00 | 0.00 | 0.00 | 29 | 1017.8 |
| 20260501183036 | 16 | 287 | 24.1 | 38.6 | 0.00 | 0.00 | 0.00 | 30 | 1018.0 |
| 20260501181534 | 16 | 301 | 24.1 | 41.8 | 0.00 | 0.00 | 0.00 | 32 | 1017.8 |
| 20260501180044 | 16 | 300 | 22.5 | 33.8 | 0.00 | 0.00 | 0.00 | 31 | 1018.1 |
| 20260501174532 | 16 | 297 | 19.3 | 41.8 | 0.00 | 0.00 | 0.00 | 33 | 1018.3 |
| 20260501173027 | 15 | 278 | 24.1 | 35.4 | 0.00 | 0.00 | 0.00 | 31 | 1018.4 |
| 20260501171525 | 15 | 281 | 20.9 | 37.0 | 0.00 | 0.00 | 0.00 | 32 | 1018.2 |
| 20260501170023 | 15 | 273 | 27.4 | 41.8 | 0.00 | 0.00 | 0.00 | 33 | 1018.3 |
| 20260501164521 | 15 | 270 | 19.3 | 37.0 | 0.00 | 0.00 | 0.00 | 34 | 1018.3 |
| 20260501163018 | 15 | 302 | 20.9 | 37.0 | 0.00 | 0.00 | 0.00 | 34 | 1018.3 |
| 20260501161525 | 15 | 230 | 17.7 | 29.0 | 0.00 | 0.00 | 0.00 | 34 | 1018.2 |
| 20260501160011 | 14 | 272 | 22.5 | 38.6 | 0.00 | 0.00 | 0.00 | 34 | 1018.3 |
| 20260501154504 | 13 | 277 | 24.1 | 35.4 | 0.00 | 0.00 | 0.00 | 34 | 1018.4 |
| 20260501153001 | 13 | 254 | 17.7 | 24.1 | 0.00 | 0.00 | 0.00 | 35 | 1018.4 |